sensor_id;sensor_type;location;lat;lon;timestamp;temperature;humidity
6146;DHT22;3104;50.348;7.620;2023-06-24T00:02:15;18.70;1.00
6146;DHT22;3104;50.348;7.620;2023-06-24T00:04:40;18.60;1.00
6146;DHT22;3104;50.348;7.620;2023-06-24T00:07:06;18.50;1.00
6146;DHT22;3104;50.348;7.620;2023-06-24T00:09:32;18.40;1.00
6146;DHT22;3104;50.348;7.620;2023-06-24T00:11:58;18.40;1.00
6146;DHT22;3104;50.348;7.620;2023-06-24T00:14:27;18.30;99.90
6146;DHT22;3104;50.348;7.620;2023-06-24T00:16:53;18.40;1.00
6146;DHT22;3104;50.348;7.620;2023-06-24T00:19:24;18.40;1.00
6146;DHT22;3104;50.348;7.620;2023-06-24T00:21:50;18.50;1.00
6146;DHT22;3104;50.348;7.620;2023-06-24T00:24:20;18.50;99.90
6146;DHT22;3104;50.348;7.620;2023-06-24T00:26:54;18.40;99.90
6146;DHT22;3104;50.348;7.620;2023-06-24T00:29:19;18.30;1.00
6146;DHT22;3104;50.348;7.620;2023-06-24T00:31:45;18.20;1.00
6146;DHT22;3104;50.348;7.620;2023-06-24T00:34:10;18.10;99.90
6146;DHT22;3104;50.348;7.620;2023-06-24T00:36:36;18.00;1.00
6146;DHT22;3104;50.348;7.620;2023-06-24T00:39:06;17.90;1.00
6146;DHT22;3104;50.348;7.620;2023-06-24T00:41:33;17.80;1.00
6146;DHT22;3104;50.348;7.620;2023-06-24T00:43:59;17.80;1.00
6146;DHT22;3104;50.348;7.620;2023-06-24T00:46:25;17.80;1.00
6146;DHT22;3104;50.348;7.620;2023-06-24T00:48:57;17.80;1.00
6146;DHT22;3104;50.348;7.620;2023-06-24T00:51:24;17.90;1.00
6146;DHT22;3104;50.348;7.620;2023-06-24T00:53:56;17.90;1.00
6146;DHT22;3104;50.348;7.620;2023-06-24T00:56:27;17.90;99.90
6146;DHT22;3104;50.348;7.620;2023-06-24T00:58:54;17.90;1.00
6146;DHT22;3104;50.348;7.620;2023-06-24T01:01:20;17.90;1.00
6146;DHT22;3104;50.348;7.620;2023-06-24T01:03:46;17.80;1.00
6146;DHT22;3104;50.348;7.620;2023-06-24T01:06:13;18.20;1.00
6146;DHT22;3104;50.348;7.620;2023-06-24T01:08:39;18.20;1.00
6146;DHT22;3104;50.348;7.620;2023-06-24T01:11:04;18.10;1.00
6146;DHT22;3104;50.348;7.620;2023-06-24T01:13:30;18.00;99.90
6146;DHT22;3104;50.348;7.620;2023-06-24T01:15:59;17.90;1.00
6146;DHT22;3104;50.348;7.620;2023-06-24T01:18:56;17.90;99.90
6146;DHT22;3104;50.348;7.620;2023-06-24T01:21:40;17.80;99.90
6146;DHT22;3104;50.348;7.620;2023-06-24T01:24:41;17.60;1.00
6146;DHT22;3104;50.348;7.620;2023-06-24T01:32:51;17.80;1.00
6146;DHT22;3104;50.348;7.620;2023-06-24T01:35:25;17.60;1.00
6146;DHT22;3104;50.348;7.620;2023-06-24T01:37:55;17.50;1.00
6146;DHT22;3104;50.348;7.620;2023-06-24T01:40:26;17.40;99.90
6146;DHT22;3104;50.348;7.620;2023-06-24T01:42:52;17.20;99.90
6146;DHT22;3104;50.348;7.620;2023-06-24T01:45:40;17.10;1.00
6146;DHT22;3104;50.348;7.620;2023-06-24T01:48:13;17.00;1.00
6146;DHT22;3104;50.348;7.620;2023-06-24T01:50:41;17.10;1.00
6146;DHT22;3104;50.348;7.620;2023-06-24T01:53:08;17.10;1.00
6146;DHT22;3104;50.348;7.620;2023-06-24T01:55:35;17.10;99.90
6146;DHT22;3104;50.348;7.620;2023-06-24T01:58:03;17.10;99.90
6146;DHT22;3104;50.348;7.620;2023-06-24T02:00:30;17.10;99.90
6146;DHT22;3104;50.348;7.620;2023-06-24T02:02:57;17.20;99.90
6146;DHT22;3104;50.348;7.620;2023-06-24T02:05:23;17.30;99.90
6146;DHT22;3104;50.348;7.620;2023-06-24T02:07:51;17.40;1.00
6146;DHT22;3104;50.348;7.620;2023-06-24T02:10:17;17.60;14.60
6146;DHT22;3104;50.348;7.620;2023-06-24T02:12:46;17.40;1.00
6146;DHT22;3104;50.348;7.620;2023-06-24T02:15:13;17.50;99.90
6146;DHT22;3104;50.348;7.620;2023-06-24T02:17:39;17.80;1.00
6146;DHT22;3104;50.348;7.620;2023-06-24T02:20:06;17.60;1.00
6146;DHT22;3104;50.348;7.620;2023-06-24T02:22:35;17.40;1.00
6146;DHT22;3104;50.348;7.620;2023-06-24T02:25:01;17.20;53.30
6146;DHT22;3104;50.348;7.620;2023-06-24T02:27:27;17.10;99.90
6146;DHT22;3104;50.348;7.620;2023-06-24T02:29:54;16.80;1.00
6146;DHT22;3104;50.348;7.620;2023-06-24T02:32:20;16.80;1.00
6146;DHT22;3104;50.348;7.620;2023-06-24T02:34:46;16.80;1.00
6146;DHT22;3104;50.348;7.620;2023-06-24T02:37:12;16.80;1.00
6146;DHT22;3104;50.348;7.620;2023-06-24T02:39:37;16.70;1.00
6146;DHT22;3104;50.348;7.620;2023-06-24T02:42:12;16.70;1.00
6146;DHT22;3104;50.348;7.620;2023-06-24T02:44:39;16.60;1.00
6146;DHT22;3104;50.348;7.620;2023-06-24T02:47:07;16.60;1.00
6146;DHT22;3104;50.348;7.620;2023-06-24T02:49:35;16.50;1.00
6146;DHT22;3104;50.348;7.620;2023-06-24T02:52:03;16.60;1.00
6146;DHT22;3104;50.348;7.620;2023-06-24T02:54:29;16.50;1.00
6146;DHT22;3104;50.348;7.620;2023-06-24T02:56:55;16.40;1.00
6146;DHT22;3104;50.348;7.620;2023-06-24T02:59:23;16.40;1.00
6146;DHT22;3104;50.348;7.620;2023-06-24T03:01:50;16.40;1.00
6146;DHT22;3104;50.348;7.620;2023-06-24T03:04:18;16.40;1.00
6146;DHT22;3104;50.348;7.620;2023-06-24T03:06:44;16.30;1.00
6146;DHT22;3104;50.348;7.620;2023-06-24T03:09:10;16.30;1.00
6146;DHT22;3104;50.348;7.620;2023-06-24T03:11:43;16.20;1.00
6146;DHT22;3104;50.348;7.620;2023-06-24T03:14:12;16.20;1.00
6146;DHT22;3104;50.348;7.620;2023-06-24T03:16:38;16.20;1.00
6146;DHT22;3104;50.348;7.620;2023-06-24T03:19:07;16.20;1.00
6146;DHT22;3104;50.348;7.620;2023-06-24T03:21:32;16.20;1.00
6146;DHT22;3104;50.348;7.620;2023-06-24T03:23:58;16.40;1.00
6146;DHT22;3104;50.348;7.620;2023-06-24T03:26:37;16.70;1.00
6146;DHT22;3104;50.348;7.620;2023-06-24T03:29:03;16.40;1.00
6146;DHT22;3104;50.348;7.620;2023-06-24T03:31:29;16.50;1.00
6146;DHT22;3104;50.348;7.620;2023-06-24T03:33:55;16.20;1.00
6146;DHT22;3104;50.348;7.620;2023-06-24T03:36:21;16.20;1.00
6146;DHT22;3104;50.348;7.620;2023-06-24T03:38:46;16.40;1.00
6146;DHT22;3104;50.348;7.620;2023-06-24T03:41:12;16.40;1.00
6146;DHT22;3104;50.348;7.620;2023-06-24T03:43:38;16.40;1.00
6146;DHT22;3104;50.348;7.620;2023-06-24T03:46:03;16.30;1.00
6146;DHT22;3104;50.348;7.620;2023-06-24T03:48:29;16.20;1.00
6146;DHT22;3104;50.348;7.620;2023-06-24T03:50:54;16.10;1.00
6146;DHT22;3104;50.348;7.620;2023-06-24T03:53:20;16.10;1.00
6146;DHT22;3104;50.348;7.620;2023-06-24T03:55:45;16.10;1.00
6146;DHT22;3104;50.348;7.620;2023-06-24T03:58:11;16.20;1.00
6146;DHT22;3104;50.348;7.620;2023-06-24T04:00:37;16.50;1.00
6146;DHT22;3104;50.348;7.620;2023-06-24T04:03:06;16.90;1.00
6146;DHT22;3104;50.348;7.620;2023-06-24T04:05:33;17.30;99.90
6146;DHT22;3104;50.348;7.620;2023-06-24T04:07:58;17.50;1.00
6146;DHT22;3104;50.348;7.620;2023-06-24T04:10:24;17.80;99.90
6146;DHT22;3104;50.348;7.620;2023-06-24T04:12:50;17.90;1.00
6146;DHT22;3104;50.348;7.620;2023-06-24T04:15:15;17.90;1.00
6146;DHT22;3104;50.348;7.620;2023-06-24T04:17:41;18.20;99.90
6146;DHT22;3104;50.348;7.620;2023-06-24T04:20:07;18.40;99.90
6146;DHT22;3104;50.348;7.620;2023-06-24T04:22:34;18.40;99.90
6146;DHT22;3104;50.348;7.620;2023-06-24T04:25:00;18.10;1.00
6146;DHT22;3104;50.348;7.620;2023-06-24T04:27:26;18.10;1.00
6146;DHT22;3104;50.348;7.620;2023-06-24T04:29:51;18.20;1.00
6146;DHT22;3104;50.348;7.620;2023-06-24T04:32:17;18.50;1.00
6146;DHT22;3104;50.348;7.620;2023-06-24T04:34:42;18.50;1.00
6146;DHT22;3104;50.348;7.620;2023-06-24T04:37:08;18.70;99.90
6146;DHT22;3104;50.348;7.620;2023-06-24T04:39:33;19.10;1.00
6146;DHT22;3104;50.348;7.620;2023-06-24T04:41:59;19.30;1.00
6146;DHT22;3104;50.348;7.620;2023-06-24T04:44:25;19.40;99.90
6146;DHT22;3104;50.348;7.620;2023-06-24T04:46:51;19.50;1.00
6146;DHT22;3104;50.348;7.620;2023-06-24T04:49:18;19.40;1.00
6146;DHT22;3104;50.348;7.620;2023-06-24T04:51:43;19.10;1.00
6146;DHT22;3104;50.348;7.620;2023-06-24T04:54:09;18.90;99.90
6146;DHT22;3104;50.348;7.620;2023-06-24T04:56:35;18.50;1.00
6146;DHT22;3104;50.348;7.620;2023-06-24T04:59:01;18.40;1.00
6146;DHT22;3104;50.348;7.620;2023-06-24T05:01:26;18.40;1.00
6146;DHT22;3104;50.348;7.620;2023-06-24T05:03:52;18.40;1.00
6146;DHT22;3104;50.348;7.620;2023-06-24T05:06:18;18.40;1.00
6146;DHT22;3104;50.348;7.620;2023-06-24T05:08:43;18.40;99.90
6146;DHT22;3104;50.348;7.620;2023-06-24T05:11:09;18.40;8.30
6146;DHT22;3104;50.348;7.620;2023-06-24T05:13:34;18.50;99.90
6146;DHT22;3104;50.348;7.620;2023-06-24T05:16:00;18.40;99.90
6146;DHT22;3104;50.348;7.620;2023-06-24T05:18:25;18.60;1.00
6146;DHT22;3104;50.348;7.620;2023-06-24T05:20:51;18.70;1.00
6146;DHT22;3104;50.348;7.620;2023-06-24T05:23:17;18.80;1.00
6146;DHT22;3104;50.348;7.620;2023-06-24T05:25:43;18.80;99.90
6146;DHT22;3104;50.348;7.620;2023-06-24T05:28:09;18.80;1.00
6146;DHT22;3104;50.348;7.620;2023-06-24T05:30:34;18.50;1.00
6146;DHT22;3104;50.348;7.620;2023-06-24T05:33:00;18.50;23.00
6146;DHT22;3104;50.348;7.620;2023-06-24T05:35:25;18.40;1.00
6146;DHT22;3104;50.348;7.620;2023-06-24T05:37:51;18.40;1.00
6146;DHT22;3104;50.348;7.620;2023-06-24T05:40:16;18.20;1.00
6146;DHT22;3104;50.348;7.620;2023-06-24T05:42:42;18.20;1.00
6146;DHT22;3104;50.348;7.620;2023-06-24T05:45:08;18.00;1.00
6146;DHT22;3104;50.348;7.620;2023-06-24T05:47:33;17.90;99.90
6146;DHT22;3104;50.348;7.620;2023-06-24T05:49:59;18.10;99.90
6146;DHT22;3104;50.348;7.620;2023-06-24T05:52:24;18.40;1.00
6146;DHT22;3104;50.348;7.620;2023-06-24T05:54:50;18.40;99.90
6146;DHT22;3104;50.348;7.620;2023-06-24T05:57:16;18.30;1.00
6146;DHT22;3104;50.348;7.620;2023-06-24T05:59:41;18.40;1.00
6146;DHT22;3104;50.348;7.620;2023-06-24T06:02:07;18.50;1.00
6146;DHT22;3104;50.348;7.620;2023-06-24T06:04:33;18.70;99.90
6146;DHT22;3104;50.348;7.620;2023-06-24T06:06:58;18.70;1.00
6146;DHT22;3104;50.348;7.620;2023-06-24T06:09:24;18.70;1.00
6146;DHT22;3104;50.348;7.620;2023-06-24T06:11:49;18.70;1.00
6146;DHT22;3104;50.348;7.620;2023-06-24T06:14:15;18.50;2.30
6146;DHT22;3104;50.348;7.620;2023-06-24T06:16:40;18.50;1.00
6146;DHT22;3104;50.348;7.620;2023-06-24T06:19:06;18.70;1.00
6146;DHT22;3104;50.348;7.620;2023-06-24T06:21:32;18.70;99.90
6146;DHT22;3104;50.348;7.620;2023-06-24T06:23:57;18.60;99.90
6146;DHT22;3104;50.348;7.620;2023-06-24T06:26:23;18.70;1.00
6146;DHT22;3104;50.348;7.620;2023-06-24T06:28:49;18.80;99.90
6146;DHT22;3104;50.348;7.620;2023-06-24T06:31:15;18.90;1.00
6146;DHT22;3104;50.348;7.620;2023-06-24T06:33:42;19.00;1.00
6146;DHT22;3104;50.348;7.620;2023-06-24T06:36:08;19.10;52.50
6146;DHT22;3104;50.348;7.620;2023-06-24T06:38:34;19.20;1.00
6146;DHT22;3104;50.348;7.620;2023-06-24T06:41:00;19.20;99.90
6146;DHT22;3104;50.348;7.620;2023-06-24T06:43:25;19.40;99.90
6146;DHT22;3104;50.348;7.620;2023-06-24T06:45:51;19.40;1.00
6146;DHT22;3104;50.348;7.620;2023-06-24T06:48:16;19.40;99.90
6146;DHT22;3104;50.348;7.620;2023-06-24T06:50:42;19.40;1.00
6146;DHT22;3104;50.348;7.620;2023-06-24T06:53:08;19.50;1.00
6146;DHT22;3104;50.348;7.620;2023-06-24T06:55:33;19.50;1.00
6146;DHT22;3104;50.348;7.620;2023-06-24T06:57:59;19.40;1.00
6146;DHT22;3104;50.348;7.620;2023-06-24T07:00:24;19.50;99.90
6146;DHT22;3104;50.348;7.620;2023-06-24T07:02:50;19.60;1.00
6146;DHT22;3104;50.348;7.620;2023-06-24T07:05:16;19.50;81.30
6146;DHT22;3104;50.348;7.620;2023-06-24T07:07:41;19.50;10.10
6146;DHT22;3104;50.348;7.620;2023-06-24T07:10:09;19.50;1.00
6146;DHT22;3104;50.348;7.620;2023-06-24T07:12:35;19.50;99.90
6146;DHT22;3104;50.348;7.620;2023-06-24T07:15:01;19.60;1.00
6146;DHT22;3104;50.348;7.620;2023-06-24T07:17:26;19.90;1.00
6146;DHT22;3104;50.348;7.620;2023-06-24T07:19:52;20.10;99.90
6146;DHT22;3104;50.348;7.620;2023-06-24T07:22:17;20.30;1.00
6146;DHT22;3104;50.348;7.620;2023-06-24T07:24:43;20.40;1.00
6146;DHT22;3104;50.348;7.620;2023-06-24T07:27:09;20.60;1.00
6146;DHT22;3104;50.348;7.620;2023-06-24T07:29:34;20.60;99.90
6146;DHT22;3104;50.348;7.620;2023-06-24T07:32:00;20.60;55.90
6146;DHT22;3104;50.348;7.620;2023-06-24T07:34:26;20.50;99.90
6146;DHT22;3104;50.348;7.620;2023-06-24T07:36:52;20.60;1.00
6146;DHT22;3104;50.348;7.620;2023-06-24T07:39:17;20.70;99.90
6146;DHT22;3104;50.348;7.620;2023-06-24T07:41:43;20.70;39.60
6146;DHT22;3104;50.348;7.620;2023-06-24T07:44:08;21.00;1.00
6146;DHT22;3104;50.348;7.620;2023-06-24T07:46:34;21.20;1.00
6146;DHT22;3104;50.348;7.620;2023-06-24T07:49:00;21.30;99.90
6146;DHT22;3104;50.348;7.620;2023-06-24T07:51:26;21.30;99.90
6146;DHT22;3104;50.348;7.620;2023-06-24T07:53:52;21.50;1.00
6146;DHT22;3104;50.348;7.620;2023-06-24T07:56:18;21.80;1.00
6146;DHT22;3104;50.348;7.620;2023-06-24T07:58:43;21.60;1.00
6146;DHT22;3104;50.348;7.620;2023-06-24T08:01:09;21.70;99.90
6146;DHT22;3104;50.348;7.620;2023-06-24T08:03:35;22.00;99.90
6146;DHT22;3104;50.348;7.620;2023-06-24T08:06:02;22.50;1.00
6146;DHT22;3104;50.348;7.620;2023-06-24T08:08:28;22.60;1.00
6146;DHT22;3104;50.348;7.620;2023-06-24T08:10:53;22.80;1.00
6146;DHT22;3104;50.348;7.620;2023-06-24T08:13:19;23.50;1.00
6146;DHT22;3104;50.348;7.620;2023-06-24T08:15:45;23.70;99.90
6146;DHT22;3104;50.348;7.620;2023-06-24T08:18:11;23.80;99.90
6146;DHT22;3104;50.348;7.620;2023-06-24T08:20:36;24.10;99.90
6146;DHT22;3104;50.348;7.620;2023-06-24T08:23:02;24.30;81.70
6146;DHT22;3104;50.348;7.620;2023-06-24T08:25:27;25.00;1.00
6146;DHT22;3104;50.348;7.620;2023-06-24T08:33:44;25.70;1.00
6146;DHT22;3104;50.348;7.620;2023-06-24T08:36:13;25.70;1.00
6146;DHT22;3104;50.348;7.620;2023-06-24T08:38:38;25.80;1.00
6146;DHT22;3104;50.348;7.620;2023-06-24T08:41:04;26.10;1.00
6146;DHT22;3104;50.348;7.620;2023-06-24T08:43:29;26.50;1.00
6146;DHT22;3104;50.348;7.620;2023-06-24T08:45:55;26.50;1.00
6146;DHT22;3104;50.348;7.620;2023-06-24T08:48:39;25.60;1.00
6146;DHT22;3104;50.348;7.620;2023-06-24T08:51:11;25.70;1.00
6146;DHT22;3104;50.348;7.620;2023-06-24T08:53:38;26.00;1.00
6146;DHT22;3104;50.348;7.620;2023-06-24T08:56:07;26.40;1.00
6146;DHT22;3104;50.348;7.620;2023-06-24T08:58:33;27.30;1.00
6146;DHT22;3104;50.348;7.620;2023-06-24T09:00:59;27.00;1.00
6146;DHT22;3104;50.348;7.620;2023-06-24T09:03:25;27.10;1.00
6146;DHT22;3104;50.348;7.620;2023-06-24T09:05:51;27.70;1.00
6146;DHT22;3104;50.348;7.620;2023-06-24T09:08:16;28.00;1.00
6146;DHT22;3104;50.348;7.620;2023-06-24T09:10:43;28.00;1.00
6146;DHT22;3104;50.348;7.620;2023-06-24T09:13:09;27.80;1.00
6146;DHT22;3104;50.348;7.620;2023-06-24T09:15:36;28.40;1.00
6146;DHT22;3104;50.348;7.620;2023-06-24T09:18:03;28.20;99.90
6146;DHT22;3104;50.348;7.620;2023-06-24T09:20:29;28.10;99.90
6146;DHT22;3104;50.348;7.620;2023-06-24T09:23:02;28.20;99.90
6146;DHT22;3104;50.348;7.620;2023-06-24T09:25:28;28.20;99.90
6146;DHT22;3104;50.348;7.620;2023-06-24T09:27:54;28.20;99.90
6146;DHT22;3104;50.348;7.620;2023-06-24T09:30:22;28.40;99.90
6146;DHT22;3104;50.348;7.620;2023-06-24T09:32:49;28.70;99.90
6146;DHT22;3104;50.348;7.620;2023-06-24T09:35:20;29.30;99.90
6146;DHT22;3104;50.348;7.620;2023-06-24T09:40:16;29.40;99.90
6146;DHT22;3104;50.348;7.620;2023-06-24T09:42:52;28.80;99.90
6146;DHT22;3104;50.348;7.620;2023-06-24T09:45:25;28.90;99.90
6146;DHT22;3104;50.348;7.620;2023-06-24T09:47:52;28.70;99.90
6146;DHT22;3104;50.348;7.620;2023-06-24T09:50:18;28.70;99.90
6146;DHT22;3104;50.348;7.620;2023-06-24T09:52:45;28.40;99.90
6146;DHT22;3104;50.348;7.620;2023-06-24T09:55:15;28.80;99.90
6146;DHT22;3104;50.348;7.620;2023-06-24T09:57:45;29.30;99.90
6146;DHT22;3104;50.348;7.620;2023-06-24T10:00:13;29.70;99.90
6146;DHT22;3104;50.348;7.620;2023-06-24T10:02:40;30.30;99.90
6146;DHT22;3104;50.348;7.620;2023-06-24T10:05:06;29.80;99.90
6146;DHT22;3104;50.348;7.620;2023-06-24T10:07:34;29.40;99.90
6146;DHT22;3104;50.348;7.620;2023-06-24T10:10:03;29.30;99.90
6146;DHT22;3104;50.348;7.620;2023-06-24T10:12:29;30.30;99.90
6146;DHT22;3104;50.348;7.620;2023-06-24T10:14:55;30.60;99.90
6146;DHT22;3104;50.348;7.620;2023-06-24T10:17:21;31.20;99.90
6146;DHT22;3104;50.348;7.620;2023-06-24T10:19:46;31.00;99.90
6146;DHT22;3104;50.348;7.620;2023-06-24T10:22:12;30.60;99.90
6146;DHT22;3104;50.348;7.620;2023-06-24T10:24:39;29.70;99.90
6146;DHT22;3104;50.348;7.620;2023-06-24T10:27:18;30.20;99.90
6146;DHT22;3104;50.348;7.620;2023-06-24T10:29:56;30.60;99.90
6146;DHT22;3104;50.348;7.620;2023-06-24T10:32:26;30.10;99.90
6146;DHT22;3104;50.348;7.620;2023-06-24T10:35:04;29.90;99.90
6146;DHT22;3104;50.348;7.620;2023-06-24T10:37:32;30.50;99.90
6146;DHT22;3104;50.348;7.620;2023-06-24T10:39:58;29.90;99.90
6146;DHT22;3104;50.348;7.620;2023-06-24T10:45:16;30.60;99.90
6146;DHT22;3104;50.348;7.620;2023-06-24T10:47:47;30.50;99.90
6146;DHT22;3104;50.348;7.620;2023-06-24T10:50:20;31.10;99.90
6146;DHT22;3104;50.348;7.620;2023-06-24T10:52:48;31.10;99.90
6146;DHT22;3104;50.348;7.620;2023-06-24T10:55:17;31.30;99.90
6146;DHT22;3104;50.348;7.620;2023-06-24T10:57:44;31.30;99.90
6146;DHT22;3104;50.348;7.620;2023-06-24T11:00:12;30.40;99.90
6146;DHT22;3104;50.348;7.620;2023-06-24T11:02:38;31.10;99.90
6146;DHT22;3104;50.348;7.620;2023-06-24T11:05:04;31.30;99.90
6146;DHT22;3104;50.348;7.620;2023-06-24T11:07:35;31.40;99.90
6146;DHT22;3104;50.348;7.620;2023-06-24T11:12:30;31.40;99.90
6146;DHT22;3104;50.348;7.620;2023-06-24T11:15:03;30.60;99.90
6146;DHT22;3104;50.348;7.620;2023-06-24T11:17:29;30.60;99.90
6146;DHT22;3104;50.348;7.620;2023-06-24T11:19:55;30.60;99.90
6146;DHT22;3104;50.348;7.620;2023-06-24T11:22:22;30.30;99.90
6146;DHT22;3104;50.348;7.620;2023-06-24T11:24:48;30.30;99.90
6146;DHT22;3104;50.348;7.620;2023-06-24T11:27:14;30.80;99.90
6146;DHT22;3104;50.348;7.620;2023-06-24T11:29:39;31.20;99.90
6146;DHT22;3104;50.348;7.620;2023-06-24T11:32:09;30.90;99.90
6146;DHT22;3104;50.348;7.620;2023-06-24T11:34:35;30.90;99.90
6146;DHT22;3104;50.348;7.620;2023-06-24T11:37:12;30.10;99.90
6146;DHT22;3104;50.348;7.620;2023-06-24T11:39:38;29.60;99.90
6146;DHT22;3104;50.348;7.620;2023-06-24T11:42:06;29.90;99.90
6146;DHT22;3104;50.348;7.620;2023-06-24T11:44:33;29.50;99.90
6146;DHT22;3104;50.348;7.620;2023-06-24T11:47:06;29.90;99.90
6146;DHT22;3104;50.348;7.620;2023-06-24T11:49:31;30.40;99.90
6146;DHT22;3104;50.348;7.620;2023-06-24T11:51:57;30.10;99.90
6146;DHT22;3104;50.348;7.620;2023-06-24T11:54:22;30.50;99.90
6146;DHT22;3104;50.348;7.620;2023-06-24T11:56:53;30.90;99.90
6146;DHT22;3104;50.348;7.620;2023-06-24T11:59:21;31.90;99.90
6146;DHT22;3104;50.348;7.620;2023-06-24T12:01:58;31.50;99.90
6146;DHT22;3104;50.348;7.620;2023-06-24T12:04:33;31.30;99.90
6146;DHT22;3104;50.348;7.620;2023-06-24T12:06:59;31.20;99.90
6146;DHT22;3104;50.348;7.620;2023-06-24T12:09:25;31.10;99.90
6146;DHT22;3104;50.348;7.620;2023-06-24T12:11:52;31.20;99.90
6146;DHT22;3104;50.348;7.620;2023-06-24T12:14:18;31.30;99.90
6146;DHT22;3104;50.348;7.620;2023-06-24T12:16:43;31.00;99.90
6146;DHT22;3104;50.348;7.620;2023-06-24T12:19:09;31.40;99.90
6146;DHT22;3104;50.348;7.620;2023-06-24T12:21:35;31.70;99.90
6146;DHT22;3104;50.348;7.620;2023-06-24T12:24:05;32.00;99.90
6146;DHT22;3104;50.348;7.620;2023-06-24T12:26:31;32.60;99.90
6146;DHT22;3104;50.348;7.620;2023-06-24T12:28:57;32.00;99.90
6146;DHT22;3104;50.348;7.620;2023-06-24T12:31:26;32.10;99.90
6146;DHT22;3104;50.348;7.620;2023-06-24T12:33:51;31.40;99.90
6146;DHT22;3104;50.348;7.620;2023-06-24T12:36:19;31.00;99.90
6146;DHT22;3104;50.348;7.620;2023-06-24T12:38:44;31.00;99.90
6146;DHT22;3104;50.348;7.620;2023-06-24T12:41:10;31.40;99.90
6146;DHT22;3104;50.348;7.620;2023-06-24T12:43:35;31.30;99.90
6146;DHT22;3104;50.348;7.620;2023-06-24T12:46:01;31.50;99.90
6146;DHT22;3104;50.348;7.620;2023-06-24T12:48:26;31.40;99.90
6146;DHT22;3104;50.348;7.620;2023-06-24T12:50:52;30.70;99.90
6146;DHT22;3104;50.348;7.620;2023-06-24T12:53:21;31.60;99.90
6146;DHT22;3104;50.348;7.620;2023-06-24T12:55:47;31.30;99.90
6146;DHT22;3104;50.348;7.620;2023-06-24T12:58:14;31.40;99.90
6146;DHT22;3104;50.348;7.620;2023-06-24T13:00:40;30.70;99.90
6146;DHT22;3104;50.348;7.620;2023-06-24T13:03:06;30.50;99.90
6146;DHT22;3104;50.348;7.620;2023-06-24T13:05:31;31.00;99.90
6146;DHT22;3104;50.348;7.620;2023-06-24T13:07:57;31.70;99.90
6146;DHT22;3104;50.348;7.620;2023-06-24T13:10:22;31.70;99.90
6146;DHT22;3104;50.348;7.620;2023-06-24T13:12:49;31.70;99.80
6146;DHT22;3104;50.348;7.620;2023-06-24T13:15:15;31.80;98.90
6146;DHT22;3104;50.348;7.620;2023-06-24T13:17:40;31.60;97.40
6146;DHT22;3104;50.348;7.620;2023-06-24T13:20:07;31.00;94.00
6146;DHT22;3104;50.348;7.620;2023-06-24T13:22:33;30.60;92.30
6146;DHT22;3104;50.348;7.620;2023-06-24T13:24:58;30.90;97.40
6146;DHT22;3104;50.348;7.620;2023-06-24T13:27:24;31.50;97.30
6146;DHT22;3104;50.348;7.620;2023-06-24T13:29:49;31.70;96.30
6146;DHT22;3104;50.348;7.620;2023-06-24T13:32:15;31.70;93.60
6146;DHT22;3104;50.348;7.620;2023-06-24T13:34:41;31.60;91.60
6146;DHT22;3104;50.348;7.620;2023-06-24T13:37:07;31.30;87.70
6146;DHT22;3104;50.348;7.620;2023-06-24T13:39:32;31.00;90.60
6146;DHT22;3104;50.348;7.620;2023-06-24T13:41:58;30.90;89.90
6146;DHT22;3104;50.348;7.620;2023-06-24T13:44:24;30.60;90.30
6146;DHT22;3104;50.348;7.620;2023-06-24T13:46:49;30.30;90.10
6146;DHT22;3104;50.348;7.620;2023-06-24T13:49:15;30.30;93.30
6146;DHT22;3104;50.348;7.620;2023-06-24T13:51:41;30.80;95.50
6146;DHT22;3104;50.348;7.620;2023-06-24T13:54:07;31.20;96.10
6146;DHT22;3104;50.348;7.620;2023-06-24T13:56:33;31.50;95.70
6146;DHT22;3104;50.348;7.620;2023-06-24T13:58:58;31.70;95.80
6146;DHT22;3104;50.348;7.620;2023-06-24T14:01:24;31.30;91.40
6146;DHT22;3104;50.348;7.620;2023-06-24T14:03:50;31.30;92.20
6146;DHT22;3104;50.348;7.620;2023-06-24T14:06:18;30.80;87.70
6146;DHT22;3104;50.348;7.620;2023-06-24T14:08:44;29.90;78.60
6146;DHT22;3104;50.348;7.620;2023-06-24T14:11:11;29.90;90.00
6146;DHT22;3104;50.348;7.620;2023-06-24T14:13:36;29.90;87.40
6146;DHT22;3104;50.348;7.620;2023-06-24T14:16:03;29.70;79.90
6146;DHT22;3104;50.348;7.620;2023-06-24T14:18:29;29.50;81.70
6146;DHT22;3104;50.348;7.620;2023-06-24T14:20:58;29.40;81.10
6146;DHT22;3104;50.348;7.620;2023-06-24T14:23:24;30.00;90.80
6146;DHT22;3104;50.348;7.620;2023-06-24T14:25:51;30.80;90.80
6146;DHT22;3104;50.348;7.620;2023-06-24T14:28:17;30.90;91.80
6146;DHT22;3104;50.348;7.620;2023-06-24T14:30:42;30.90;90.90
6146;DHT22;3104;50.348;7.620;2023-06-24T14:33:08;31.10;88.70
6146;DHT22;3104;50.348;7.620;2023-06-24T14:35:34;30.90;82.20
6146;DHT22;3104;50.348;7.620;2023-06-24T14:37:59;30.70;83.10
6146;DHT22;3104;50.348;7.620;2023-06-24T14:40:25;30.60;79.80
6146;DHT22;3104;50.348;7.620;2023-06-24T14:42:50;31.30;86.00
6146;DHT22;3104;50.348;7.620;2023-06-24T14:45:16;31.00;76.50
6146;DHT22;3104;50.348;7.620;2023-06-24T14:47:41;31.10;76.60
6146;DHT22;3104;50.348;7.620;2023-06-24T14:50:07;31.30;76.60
6146;DHT22;3104;50.348;7.620;2023-06-24T14:52:33;31.50;78.40
6146;DHT22;3104;50.348;7.620;2023-06-24T14:54:58;31.50;79.40
6146;DHT22;3104;50.348;7.620;2023-06-24T14:57:24;31.40;72.50
6146;DHT22;3104;50.348;7.620;2023-06-24T14:59:51;30.50;61.50
6146;DHT22;3104;50.348;7.620;2023-06-24T15:02:17;30.00;59.90
6146;DHT22;3104;50.348;7.620;2023-06-24T15:04:43;29.60;68.30
6146;DHT22;3104;50.348;7.620;2023-06-24T15:07:08;30.00;73.00
6146;DHT22;3104;50.348;7.620;2023-06-24T15:09:34;29.50;64.80
6146;DHT22;3104;50.348;7.620;2023-06-24T15:12:00;29.30;63.60
6146;DHT22;3104;50.348;7.620;2023-06-24T15:14:25;29.20;66.10
6146;DHT22;3104;50.348;7.620;2023-06-24T15:16:51;29.50;65.10
6146;DHT22;3104;50.348;7.620;2023-06-24T15:19:19;30.10;70.30
6146;DHT22;3104;50.348;7.620;2023-06-24T15:21:45;30.60;74.00
6146;DHT22;3104;50.348;7.620;2023-06-24T15:24:10;31.20;77.60
6146;DHT22;3104;50.348;7.620;2023-06-24T15:26:36;31.30;66.90
6146;DHT22;3104;50.348;7.620;2023-06-24T15:29:02;31.20;65.30
6146;DHT22;3104;50.348;7.620;2023-06-24T15:31:28;31.20;60.60
6146;DHT22;3104;50.348;7.620;2023-06-24T15:33:53;31.10;58.40
6146;DHT22;3104;50.348;7.620;2023-06-24T15:36:19;30.90;57.60
6146;DHT22;3104;50.348;7.620;2023-06-24T15:38:47;31.10;55.40
6146;DHT22;3104;50.348;7.620;2023-06-24T15:41:13;30.80;54.10
6146;DHT22;3104;50.348;7.620;2023-06-24T15:43:39;31.20;54.70
6146;DHT22;3104;50.348;7.620;2023-06-24T15:46:05;31.40;50.80
6146;DHT22;3104;50.348;7.620;2023-06-24T15:48:31;31.70;50.00
6146;DHT22;3104;50.348;7.620;2023-06-24T15:50:57;31.50;50.10
6146;DHT22;3104;50.348;7.620;2023-06-24T15:53:25;31.10;44.70
6146;DHT22;3104;50.348;7.620;2023-06-24T15:55:50;30.20;40.50
6146;DHT22;3104;50.348;7.620;2023-06-24T15:58:16;29.90;44.30
6146;DHT22;3104;50.348;7.620;2023-06-24T16:00:42;30.40;48.80
6146;DHT22;3104;50.348;7.620;2023-06-24T16:03:08;30.50;48.00
6146;DHT22;3104;50.348;7.620;2023-06-24T16:05:33;30.10;41.20
6146;DHT22;3104;50.348;7.620;2023-06-24T16:07:59;30.40;44.80
6146;DHT22;3104;50.348;7.620;2023-06-24T16:10:25;30.40;53.10
6146;DHT22;3104;50.348;7.620;2023-06-24T16:12:50;30.50;46.20
6146;DHT22;3104;50.348;7.620;2023-06-24T16:15:16;31.00;50.80
6146;DHT22;3104;50.348;7.620;2023-06-24T16:17:41;30.60;42.60
6146;DHT22;3104;50.348;7.620;2023-06-24T16:20:07;30.90;45.40
6146;DHT22;3104;50.348;7.620;2023-06-24T16:22:33;31.00;43.80
6146;DHT22;3104;50.348;7.620;2023-06-24T16:24:59;30.80;38.70